Time;durP1;ratioP1;P1;durP2;ratioP2;P2;SDS_P1;SDS_P2;PMS_P1;PMS_P2;Temp;Humidity;BMP_temperature;BMP_pressure;BME280_temperature;BME280_humidity;BME280_pressure;Samples;Min_cycle;Max_cycle;Signal;HPM_P1;HPM_P2
2023/12/06 00:01:38;;;;;;;17.13;8.93;;;;;;;3.94;54.40;100511.66;4959908;28;20129;-78
2023/12/06 00:04:07;;;;;;;15.60;8.32;;;;;;;3.94;54.23;100510.78;4974899;28;20106;-78
2023/12/06 00:06:35;;;;;;;16.85;8.25;;;;;;;3.92;54.30;100510.00;4964750;28;20107;-78
2023/12/06 00:09:03;;;;;;;13.30;7.57;;;;;;;3.91;54.31;100513.69;4954314;28;20443;-77
2023/12/06 00:11:31;;;;;;;14.93;7.72;;;;;;;3.91;54.36;100510.97;4965323;28;20389;-77
2023/12/06 00:13:59;;;;;;;14.85;8.32;;;;;;;3.91;54.35;100513.69;4951595;28;20437;-77
2023/12/06 00:16:27;;;;;;;14.93;8.13;;;;;;;3.90;54.41;100520.06;4975955;28;20046;-77
2023/12/06 00:18:55;;;;;;;15.90;8.32;;;;;;;3.89;54.30;100519.22;4968100;28;20055;-77
2023/12/06 00:21:25;;;;;;;15.13;8.15;;;;;;;3.91;54.38;100519.97;4971631;28;20043;-77
2023/12/06 00:23:53;;;;;;;16.10;8.88;;;;;;;3.88;54.37;100516.59;4948279;28;20130;-77
2023/12/06 00:26:21;;;;;;;15.65;8.20;;;;;;;3.88;53.92;100513.91;4971195;28;20527;-78
2023/12/06 00:28:50;;;;;;;17.42;8.93;;;;;;;3.86;54.21;100516.69;4954794;28;20117;-77
2023/12/06 00:31:18;;;;;;;17.25;8.60;;;;;;;3.85;54.20;100525.78;4959463;28;20465;-77
2023/12/06 00:33:46;;;;;;;16.77;8.63;;;;;;;3.85;54.09;100528.50;4965525;28;20081;-77
2023/12/06 00:36:14;;;;;;;16.30;8.70;;;;;;;3.85;54.13;100524.91;4954912;28;20078;-78
2023/12/06 00:38:43;;;;;;;17.23;8.63;;;;;;;3.84;54.00;100534.00;4972066;28;20046;-77
2023/12/06 00:41:11;;;;;;;16.17;8.82;;;;;;;3.83;54.02;100527.72;4972865;28;20054;-78
2023/12/06 00:43:39;;;;;;;17.27;9.07;;;;;;;3.81;54.05;100526.09;4962959;28;20055;-78
2023/12/06 00:46:07;;;;;;;17.63;9.27;;;;;;;3.80;54.06;100535.19;4969385;28;20050;-78
2023/12/06 00:48:35;;;;;;;16.63;9.38;;;;;;;3.78;53.87;100536.16;4964878;28;20504;-77
2023/12/06 00:51:03;;;;;;;16.00;8.82;;;;;;;3.76;53.97;100535.38;4969484;28;20057;-77
2023/12/06 00:53:31;;;;;;;16.30;9.20;;;;;;;3.75;53.91;100541.75;4981918;28;20065;-77
2023/12/06 00:56:00;;;;;;;17.90;9.65;;;;;;;3.75;53.84;100546.28;4972551;28;20050;-77
2023/12/06 00:58:28;;;;;;;15.38;9.68;;;;;;;3.73;53.79;100546.38;4956181;28;20074;-77
2023/12/06 01:00:56;;;;;;;18.50;10.20;;;;;;;3.73;53.87;100546.38;4963915;28;20497;-77
2023/12/06 01:03:24;;;;;;;21.00;10.85;;;;;;;3.73;53.78;100556.34;4953235;28;20073;-77
2023/12/06 01:05:55;;;;;;;23.95;11.18;;;;;;;3.71;53.67;100556.47;4952248;28;20066;-77
2023/12/06 01:08:24;;;;;;;23.98;12.00;;;;;;;3.69;53.82;100552.97;4957884;28;20522;-77
2023/12/06 01:10:53;;;;;;;24.55;13.15;;;;;;;3.68;53.62;100564.75;4955077;28;20046;-77
2023/12/06 01:13:22;;;;;;;28.10;13.65;;;;;;;3.67;53.36;100562.16;4961705;28;20130;-77
2023/12/06 01:15:50;;;;;;;26.63;14.27;;;;;;;3.62;53.50;100562.47;4990826;28;20125;-77
2023/12/06 01:18:18;;;;;;;26.83;14.50;;;;;;;3.61;53.45;100563.41;4964125;28;20040;-76
2023/12/06 01:20:47;;;;;;;29.58;14.07;;;;;;;3.60;53.57;100572.50;4935337;29;20082;-77
2023/12/06 01:23:15;;;;;;;27.15;13.73;;;;;;;3.58;53.31;100571.72;4961321;28;20070;-77
2023/12/06 01:25:42;;;;;;;26.00;12.90;;;;;;;3.57;53.52;100577.22;4935216;29;20074;-77
2023/12/06 01:28:10;;;;;;;25.65;13.05;;;;;;;3.55;53.36;100579.19;4972395;28;20050;-76
2023/12/06 01:30:40;;;;;;;26.23;12.98;;;;;;;3.56;53.45;100583.63;4971343;28;20051;-76
2023/12/06 01:33:08;;;;;;;28.02;14.32;;;;;;;3.53;53.51;100590.09;4964330;28;20047;-77
2023/12/06 01:35:36;;;;;;;26.08;13.85;;;;;;;3.52;53.78;100591.06;4934467;29;20048;-77
2023/12/06 01:38:04;;;;;;;28.48;14.48;;;;;;;3.52;53.86;100591.06;4951877;28;20543;-77
2023/12/06 01:40:32;;;;;;;25.88;14.07;;;;;;;3.51;53.74;100597.44;4984104;28;20109;-77
2023/12/06 01:42:59;;;;;;;25.55;13.93;;;;;;;3.51;54.01;100591.13;4990832;28;20377;-77
2023/12/06 01:45:28;;;;;;;26.52;13.98;;;;;;;3.51;53.73;100602.84;4982150;28;20057;-77
2023/12/06 01:47:58;;;;;;;30.40;15.30;;;;;;;3.52;53.88;100606.41;4971133;28;20050;-76
2023/12/06 01:50:26;;;;;;;29.05;14.75;;;;;;;3.52;53.87;100606.41;4954244;28;20063;-76
2023/12/06 01:52:58;;;;;;;27.88;14.45;;;;;;;3.52;53.87;100611.81;4954015;28;20532;-77
2023/12/06 01:55:26;;;;;;;29.35;14.40;;;;;;;3.51;53.97;100607.38;4953212;28;20410;-77
2023/12/06 01:57:55;;;;;;;29.88;15.38;;;;;;;3.52;53.74;100609.13;4971765;28;20078;-76
2023/12/06 02:00:24;;;;;;;27.95;14.40;;;;;;;3.50;54.09;100611.91;4971645;28;20547;-76
2023/12/06 02:02:53;;;;;;;28.00;14.70;;;;;;;3.50;53.76;100614.63;4962067;28;20045;-77
2023/12/06 02:05:23;;;;;;;27.88;14.60;;;;;;;3.52;53.57;100620.81;4947395;28;20047;-77
2023/12/06 02:07:52;;;;;;;29.98;15.05;;;;;;;3.51;53.37;100618.19;4973499;28;20047;-77
2023/12/06 02:10:21;;;;;;;28.98;15.18;;;;;;;3.50;53.47;100627.28;4975359;28;20038;-77
2023/12/06 02:12:50;;;;;;;29.83;15.07;;;;;;;3.49;53.59;100622.81;4995019;28;20125;-77
2023/12/06 02:15:18;;;;;;;30.50;15.88;;;;;;;3.48;53.68;100627.41;4994311;28;20046;-77
2023/12/06 02:17:46;;;;;;;28.60;15.75;;;;;;;3.48;53.56;100632.81;4991086;28;20566;-77
2023/12/06 02:20:15;;;;;;;32.90;16.30;;;;;;;3.48;53.41;100627.41;4974902;28;20601;-77
2023/12/06 02:22:45;;;;;;;28.75;15.20;;;;;;;3.48;53.48;100630.09;4975606;28;20050;-77
2023/12/06 02:25:15;;;;;;;31.55;16.23;;;;;;;3.48;53.54;100627.41;4988439;28;20137;-77
2023/12/06 02:27:45;;;;;;;32.08;15.57;;;;;;;3.47;53.64;100631.06;4941438;29;20093;-77
2023/12/06 02:30:13;;;;;;;31.33;15.60;;;;;;;3.47;53.86;100641.00;4962176;28;20130;-77
2023/12/06 02:32:42;;;;;;;33.42;16.73;;;;;;;3.45;53.59;100638.41;4957337;28;20530;-76
2023/12/06 02:35:17;;;;;;;35.70;16.17;;;;;;;3.48;53.28;100654.44;4974741;28;20039;-77
2023/12/06 02:37:47;;;;;;;32.95;17.08;;;;;;;3.45;53.38;100646.50;4974062;28;20102;-77
2023/12/06 02:40:17;;;;;;;34.00;17.67;;;;;;;3.44;53.35;100647.47;4975362;28;20129;-77
2023/12/06 02:42:45;;;;;;;31.25;16.58;;;;;;;3.43;53.47;100650.25;4974030;28;20050;-76
2023/12/06 02:45:13;;;;;;;33.90;18.20;;;;;;;3.42;53.46;100648.53;4973009;28;20047;-77
2023/12/06 02:47:42;;;;;;;34.10;17.23;;;;;;;3.39;53.39;100650.47;4974273;28;20590;-76
2023/12/06 02:50:10;;;;;;;35.67;18.60;;;;;;;3.40;53.28;100656.72;4974430;28;20062;-77
2023/12/06 02:52:38;;;;;;;35.35;18.38;;;;;;;3.39;53.38;100657.72;4974028;28;20047;-76
2023/12/06 02:55:06;;;;;;;38.25;19.20;;;;;;;3.38;53.39;100656.84;4957726;28;20053;-77
2023/12/06 02:57:36;;;;;;;35.08;18.17;;;;;;;3.38;53.40;100656.84;4974617;28;20051;-77
2023/12/06 03:00:05;;;;;;;31.52;17.65;;;;;;;3.37;53.52;100655.09;4956449;28;20066;-77
2023/12/06 03:02:33;;;;;;;33.55;18.08;;;;;;;3.36;53.57;100658.75;4973459;28;20073;-77
2023/12/06 03:05:00;;;;;;;29.50;16.67;;;;;;;3.37;53.28;100662.34;4957157;28;20047;-77
2023/12/06 03:07:28;;;;;;;30.77;17.52;;;;;;;3.36;53.15;100657.88;4965865;28;20043;-77
2023/12/06 03:09:57;;;;;;;29.63;17.38;;;;;;;3.35;53.19;100659.72;4938250;29;20098;-77
2023/12/06 03:12:25;;;;;;;29.52;17.35;;;;;;;3.34;53.25;100665.22;4952223;28;20050;-77
2023/12/06 03:14:55;;;;;;;30.80;17.00;;;;;;;3.34;53.05;100665.22;4973850;28;20420;-77
2023/12/06 03:17:23;;;;;;;30.38;17.38;;;;;;;3.33;53.16;100663.47;4955999;28;20057;-77
2023/12/06 03:19:51;;;;;;;27.77;17.15;;;;;;;3.32;53.13;100664.44;4961440;28;20102;-78
2023/12/06 03:22:19;;;;;;;28.55;17.00;;;;;;;3.30;53.07;100663.66;4973047;28;20042;-76
2023/12/06 03:24:47;;;;;;;29.25;16.05;;;;;;;3.29;52.95;100660.06;4959192;28;20043;-77
2023/12/06 03:27:15;;;;;;;28.63;16.92;;;;;;;3.29;53.00;100673.59;4976357;28;20081;-77
2023/12/06 03:29:43;;;;;;;26.33;15.70;;;;;;;3.28;53.11;100668.28;4972645;28;20065;-77
2023/12/06 03:32:12;;;;;;;26.10;15.65;;;;;;;3.28;53.05;100671.84;4977605;28;20684;-78
2023/12/06 03:34:40;;;;;;;26.00;15.60;;;;;;;3.27;52.93;100677.34;4973438;28;20646;-77
2023/12/06 03:37:08;;;;;;;27.42;15.98;;;;;;;3.26;52.89;100671.06;4942976;29;20110;-77
2023/12/06 03:39:36;;;;;;;28.17;16.65;;;;;;;3.26;53.00;100687.28;4969816;28;20062;-77
2023/12/06 03:42:05;;;;;;;29.70;16.08;;;;;;;3.26;52.78;100690.00;4993166;28;20109;-77
2023/12/06 03:44:32;;;;;;;27.10;16.63;;;;;;;3.25;52.91;100679.25;4983520;28;20130;-77
2023/12/06 03:47:00;;;;;;;26.20;15.68;;;;;;;3.25;52.90;100680.13;4973627;28;20626;-77
2023/12/06 03:49:30;;;;;;;27.00;16.67;;;;;;;3.25;52.82;100688.25;4956953;28;20093;-78
2023/12/06 03:51:58;;;;;;;24.42;14.75;;;;;;;3.24;53.05;100694.63;4973852;28;20054;-77
2023/12/06 03:54:26;;;;;;;25.23;15.98;;;;;;;3.24;52.72;100691.91;4956531;28;20050;-77
2023/12/06 03:56:54;;;;;;;28.48;16.67;;;;;;;3.23;52.76;100695.59;4972036;28;20074;-77
2023/12/06 03:59:22;;;;;;;25.27;14.80;;;;;;;3.24;52.81;100701.84;4964189;28;20051;-77
2023/12/06 04:01:50;;;;;;;25.30;16.30;;;;;;;3.22;52.68;100695.69;4965270;28;20131;-77
2023/12/06 04:04:18;;;;;;;27.38;15.95;;;;;;;3.22;52.79;100706.50;4972706;28;20511;-77
2023/12/06 04:06:48;;;;;;;24.27;15.55;;;;;;;3.22;52.82;100709.22;4973843;28;20054;-77
2023/12/06 04:09:16;;;;;;;24.27;14.48;;;;;;;3.21;53.02;100707.47;4971717;28;20073;-77
2023/12/06 04:11:44;;;;;;;26.98;16.20;;;;;;;3.21;52.92;100715.59;4943874;29;20055;-77
2023/12/06 04:14:12;;;;;;;25.90;14.90;;;;;;;3.19;52.93;100715.66;4935717;29;20134;-77
2023/12/06 04:16:39;;;;;;;26.35;15.57;;;;;;;3.20;52.84;100716.53;4964076;28;20046;-77
2023/12/06 04:19:07;;;;;;;25.50;15.65;;;;;;;3.20;52.88;100708.44;4970083;28;20106;-76
2023/12/06 04:21:35;;;;;;;24.88;15.23;;;;;;;3.20;52.93;100717.41;4948319;28;20417;-77
2023/12/06 04:24:06;;;;;;;27.65;16.23;;;;;;;3.22;52.70;100722.75;4970927;28;20164;-77
2023/12/06 04:26:34;;;;;;;26.20;15.68;;;;;;;3.20;53.02;100720.13;4968445;28;20118;-76
2023/12/06 04:29:01;;;;;;;26.48;14.95;;;;;;;3.21;52.88;100723.69;4954151;28;20129;-76
2023/12/06 04:31:29;;;;;;;26.27;14.55;;;;;;;3.22;52.99;100726.31;4962692;28;20039;-77
2023/12/06 04:33:57;;;;;;;25.67;15.30;;;;;;;3.21;52.93;100718.28;4950633;28;20058;-77
2023/12/06 04:36:25;;;;;;;23.35;14.88;;;;;;;3.21;52.98;100726.41;4962829;28;20080;-76
2023/12/06 04:38:53;;;;;;;28.75;16.75;;;;;;;3.22;53.02;100731.72;4947739;28;20141;-77
2023/12/06 04:41:22;;;;;;;28.35;16.05;;;;;;;3.24;52.99;100731.59;4967456;28;20051;-77
2023/12/06 04:43:50;;;;;;;27.50;15.18;;;;;;;3.22;53.05;100737.13;4947490;28;20119;-75
2023/12/06 04:46:18;;;;;;;25.75;14.30;;;;;;;3.22;53.07;100737.13;4970953;28;20654;-76
2023/12/06 04:48:47;;;;;;;27.08;15.75;;;;;;;3.24;53.03;100737.88;4945960;28;20050;-77
2023/12/06 04:51:16;;;;;;;25.65;14.90;;;;;;;3.25;53.10;100744.16;4971187;28;20539;-76
2023/12/06 04:53:45;;;;;;;27.73;14.70;;;;;;;3.24;53.15;100746.00;4954650;28;20472;-78
2023/12/06 04:56:13;;;;;;;25.85;15.00;;;;;;;3.25;52.94;100745.03;4962620;28;20504;-77
2023/12/06 04:58:43;;;;;;;29.23;15.85;;;;;;;3.26;52.83;100746.78;4941311;28;20587;-77
2023/12/06 05:01:10;;;;;;;27.98;14.98;;;;;;;3.27;53.13;100750.38;4971040;28;20126;-77
2023/12/06 05:03:39;;;;;;;28.05;15.75;;;;;;;3.27;53.08;100755.78;4937473;28;20093;-77
2023/12/06 05:06:07;;;;;;;24.92;14.32;;;;;;;3.27;53.26;100750.38;4961887;28;20062;-77
2023/12/06 05:08:35;;;;;;;27.45;14.73;;;;;;;3.27;53.28;100753.06;4972705;28;20150;-77
2023/12/06 05:11:03;;;;;;;28.50;15.95;;;;;;;3.26;53.41;100760.31;4972588;28;20098;-77
2023/12/06 05:13:31;;;;;;;26.65;15.48;;;;;;;3.26;53.18;100752.19;4961955;28;20420;-77
2023/12/06 05:16:01;;;;;;;29.35;16.02;;;;;;;3.28;53.09;100765.63;4954692;28;20059;-77
2023/12/06 05:18:29;;;;;;;27.10;15.70;;;;;;;3.27;53.35;100780.13;4940042;29;20054;-77
2023/12/06 05:20:57;;;;;;;24.17;14.77;;;;;;;3.26;53.32;100771.13;4968339;28;20077;-77
2023/12/06 05:23:24;;;;;;;27.33;15.48;;;;;;;3.27;53.26;100772.88;4962206;28;20081;-77
2023/12/06 05:25:52;;;;;;;26.70;14.90;;;;;;;3.28;53.36;100776.47;4962372;28;20149;-77
2023/12/06 05:28:20;;;;;;;29.38;16.30;;;;;;;3.28;53.40;100781.88;4954341;28;20078;-77
2023/12/06 05:30:49;;;;;;;28.60;14.90;;;;;;;3.27;53.45;100782.81;4967521;28;20043;-77
2023/12/06 05:33:19;;;;;;;28.15;15.52;;;;;;;3.28;53.35;100790.84;4938272;28;20047;-77
2023/12/06 05:35:47;;;;;;;26.73;14.82;;;;;;;3.28;53.48;100793.56;4962999;28;20484;-77
2023/12/06 05:38:15;;;;;;;26.45;15.13;;;;;;;3.29;53.39;100789.03;4962745;28;20070;-77
2023/12/06 05:40:43;;;;;;;28.85;15.15;;;;;;;3.28;53.38;100790.84;4951659;28;20067;-77
2023/12/06 05:43:10;;;;;;;28.75;15.15;;;;;;;3.29;53.41;100794.44;4955388;28;20147;-77
2023/12/06 05:45:38;;;;;;;27.60;15.02;;;;;;;3.29;53.38;100802.56;4977889;28;20509;-77
2023/12/06 05:48:06;;;;;;;25.55;15.18;;;;;;;3.27;53.63;100794.53;4973762;28;20110;-77
2023/12/06 05:50:36;;;;;;;29.63;15.63;;;;;;;3.30;53.38;100804.28;4947986;28;20047;-78
2023/12/06 05:53:04;;;;;;;27.80;15.15;;;;;;;3.29;53.53;100807.97;4964462;28;20567;-78
2023/12/06 05:55:32;;;;;;;26.10;14.48;;;;;;;3.30;53.44;100804.28;4968197;28;20050;-77
2023/12/06 05:57:59;;;;;;;25.65;14.68;;;;;;;3.29;53.50;100807.97;4972773;28;20042;-78
2023/12/06 06:00:27;;;;;;;26.15;15.48;;;;;;;3.29;53.52;100810.66;4967825;28;20051;-77
2023/12/06 06:02:58;;;;;;;27.15;14.93;;;;;;;3.29;53.67;100811.53;4963000;28;20050;-78
2023/12/06 06:05:26;;;;;;;27.90;15.45;;;;;;;3.29;53.61;100807.97;4971508;28;20082;-78
2023/12/06 06:07:57;;;;;;;27.92;15.70;;;;;;;3.29;53.43;100816.94;4974142;28;20042;-77
2023/12/06 06:10:25;;;;;;;24.52;14.48;;;;;;;3.26;53.43;100818.94;4970750;28;20074;-78
2023/12/06 06:12:53;;;;;;;25.63;14.65;;;;;;;3.26;53.56;100819.81;4975416;28;20125;-78
2023/12/06 06:15:21;;;;;;;23.85;14.05;;;;;;;3.25;53.45;100822.59;4978385;28;20050;-78
2023/12/06 06:17:49;;;;;;;23.50;14.60;;;;;;;3.23;53.54;100830.84;4946165;28;20130;-77
2023/12/06 06:20:17;;;;;;;23.55;13.82;;;;;;;3.23;53.66;100835.38;4956945;28;20046;-76
2023/12/06 06:22:45;;;;;;;24.40;14.20;;;;;;;3.22;53.60;100833.63;4970115;28;20127;-77
2023/12/06 06:25:14;;;;;;;24.15;14.05;;;;;;;3.23;53.81;100833.53;4960884;28;20133;-77
2023/12/06 06:27:42;;;;;;;24.05;13.80;;;;;;;3.21;53.92;100830.03;4968590;28;20571;-77
2023/12/06 06:30:12;;;;;;;24.42;14.40;;;;;;;3.21;53.75;100829.16;4949628;28;20077;-77
2023/12/06 06:32:40;;;;;;;25.77;14.88;;;;;;;3.19;53.77;100831.94;4962097;28;20043;-77
2023/12/06 06:35:09;;;;;;;24.33;14.15;;;;;;;3.19;53.96;100831.94;4950386;28;20047;-78
2023/12/06 06:37:37;;;;;;;25.02;14.27;;;;;;;3.17;53.94;100836.56;4967839;28;20058;-77
2023/12/06 06:40:07;;;;;;;23.67;14.13;;;;;;;3.19;53.99;100839.19;4958213;28;20059;-77
2023/12/06 06:42:36;;;;;;;24.30;13.90;;;;;;;3.18;53.88;100835.63;4956831;28;20054;-76
2023/12/06 06:45:06;;;;;;;21.77;13.77;;;;;;;3.17;53.95;100841.97;4961378;28;20614;-77
2023/12/06 06:47:34;;;;;;;26.73;14.82;;;;;;;3.17;53.97;100841.09;4949407;28;20035;-77
2023/12/06 06:50:03;;;;;;;27.55;14.73;;;;;;;3.17;54.08;100839.28;4970617;28;20065;-76
2023/12/06 06:52:33;;;;;;;25.23;13.95;;;;;;;3.16;54.22;100837.53;4960419;28;20043;-76
2023/12/06 06:55:01;;;;;;;25.58;15.30;;;;;;;3.16;54.26;100834.81;4957881;28;20066;-76
2023/12/06 06:57:29;;;;;;;25.65;14.48;;;;;;;3.16;54.35;100844.75;4942657;28;20077;-75
2023/12/06 06:59:58;;;;;;;24.05;14.88;;;;;;;3.18;54.23;100842.84;4953922;28;20047;-75
2023/12/06 07:02:27;;;;;;;26.30;14.43;;;;;;;3.17;54.19;100854.63;4953683;28;20134;-74
2023/12/06 07:04:55;;;;;;;25.50;15.52;;;;;;;3.17;54.25;100860.91;4954190;28;20063;-75
2023/12/06 07:07:23;;;;;;;22.73;14.40;;;;;;;3.18;54.23;100867.19;4953137;28;20058;-77
2023/12/06 07:09:52;;;;;;;23.23;14.55;;;;;;;3.19;54.28;100863.53;4970170;28;20492;-77
2023/12/06 07:12:20;;;;;;;24.33;15.13;;;;;;;3.19;54.18;100867.09;4966390;28;20046;-75
2023/12/06 07:14:48;;;;;;;24.95;14.52;;;;;;;3.18;54.34;100868.06;4967001;28;20558;-76
2023/12/06 07:17:19;;;;;;;20.88;13.88;;;;;;;3.20;54.32;100878.81;4963369;28;20425;-75
2023/12/06 07:19:47;;;;;;;23.63;14.43;;;;;;;3.20;54.45;100870.69;4962147;28;20038;-76
2023/12/06 07:22:15;;;;;;;22.33;14.48;;;;;;;3.20;54.41;100882.38;4959448;28;20035;-76
2023/12/06 07:24:43;;;;;;;22.58;13.73;;;;;;;3.20;54.60;100885.09;4948744;28;20071;-76
2023/12/06 07:27:11;;;;;;;22.48;13.82;;;;;;;3.21;54.35;100888.66;4971409;28;20046;-74
2023/12/06 07:29:39;;;;;;;22.17;13.93;;;;;;;3.21;54.39;100896.78;4958684;28;20055;-76
2023/12/06 07:32:07;;;;;;;21.90;13.98;;;;;;;3.21;54.25;100894.06;4936743;28;20137;-75
2023/12/06 07:37:24;;;;;;;23.45;14.32;;;;;;;3.22;54.53;100898.53;4945865;29;20083;-76
2023/12/06 07:39:53;;;;;;;21.27;14.15;;;;;;;3.21;54.51;100889.53;4928663;29;20130;-76
2023/12/06 07:42:21;;;;;;;20.95;13.45;;;;;;;3.21;54.52;100904.91;4931456;29;20067;-76
2023/12/06 07:44:49;;;;;;;23.30;14.02;;;;;;;3.22;54.53;100901.22;4939182;29;20509;-76
2023/12/06 07:47:17;;;;;;;22.55;14.43;;;;;;;3.21;54.48;100903.06;4946829;28;20049;-76
2023/12/06 07:49:45;;;;;;;19.60;12.77;;;;;;;3.22;54.55;100906.66;4944104;29;20051;-76
2023/12/06 07:52:13;;;;;;;19.00;12.18;;;;;;;3.22;54.80;100902.09;4940404;29;20047;-76
2023/12/06 07:54:43;;;;;;;18.63;12.40;;;;;;;3.23;54.58;100900.28;4942926;29;20040;-76
2023/12/06 07:57:12;;;;;;;20.10;12.80;;;;;;;3.22;54.63;100912.94;4941296;29;20046;-76
2023/12/06 07:59:40;;;;;;;18.95;12.10;;;;;;;3.23;54.67;100913.81;4914435;29;20067;-76
2023/12/06 08:02:08;;;;;;;20.77;13.27;;;;;;;3.22;54.58;100910.22;4945267;29;20508;-76
2023/12/06 08:04:36;;;;;;;18.85;12.15;;;;;;;3.23;54.75;100914.69;4915316;29;20462;-76
2023/12/06 08:07:04;;;;;;;18.10;11.73;;;;;;;3.24;54.45;100912.81;4940583;29;20389;-76
2023/12/06 08:09:32;;;;;;;19.25;12.90;;;;;;;3.24;54.75;100923.63;4934378;29;20409;-76
2023/12/06 08:12:01;;;;;;;19.08;12.52;;;;;;;3.25;54.73;100920.84;4933259;29;20048;-76
2023/12/06 08:14:30;;;;;;;17.25;12.00;;;;;;;3.24;54.78;100921.81;4945944;29;20505;-77
2023/12/06 08:16:57;;;;;;;17.67;11.68;;;;;;;3.25;54.73;100930.78;4930578;29;20040;-76
2023/12/06 08:19:26;;;;;;;18.52;11.75;;;;;;;3.25;54.57;100933.50;4942347;29;20051;-77
2023/12/06 08:21:55;;;;;;;18.30;12.20;;;;;;;3.25;54.81;100938.91;4923113;29;20110;-76
2023/12/06 08:24:23;;;;;;;18.73;12.40;;;;;;;3.26;54.94;100937.94;4935936;29;20051;-77
2023/12/06 08:26:51;;;;;;;17.17;11.80;;;;;;;3.26;54.97;100948.78;4921940;29;20043;-77
2023/12/06 08:29:23;;;;;;;19.35;11.77;;;;;;;3.27;54.70;100948.69;4925756;29;20056;-77
2023/12/06 08:31:51;;;;;;;16.75;11.40;;;;;;;3.26;55.07;100944.22;4943715;29;20119;-77
2023/12/06 08:34:19;;;;;;;17.15;11.38;;;;;;;3.27;55.06;100948.69;4923052;29;20603;-77
2023/12/06 08:36:47;;;;;;;17.10;11.27;;;;;;;3.27;55.00;100947.81;4939111;29;20039;-77
2023/12/06 08:39:15;;;;;;;16.58;11.23;;;;;;;3.28;55.02;100953.16;4940155;28;20044;-77
2023/12/06 08:41:43;;;;;;;17.58;11.70;;;;;;;3.28;55.01;100947.75;4945846;29;20123;-77
2023/12/06 08:44:11;;;;;;;17.02;11.63;;;;;;;3.29;55.09;100963.00;4924862;29;20421;-78
2023/12/06 08:46:42;;;;;;;17.42;11.60;;;;;;;3.31;55.18;100971.06;4938014;29;20087;-78
2023/12/06 08:49:10;;;;;;;15.48;10.93;;;;;;;3.30;55.20;100964.75;4921968;29;20070;-78
2023/12/06 08:51:38;;;;;;;16.75;10.95;;;;;;;3.30;55.24;100967.47;4936995;29;20052;-77
2023/12/06 08:54:06;;;;;;;16.38;10.57;;;;;;;3.31;55.25;100963.84;4938039;29;20040;-76
2023/12/06 08:56:34;;;;;;;16.95;11.05;;;;;;;3.32;55.12;100962.84;4930429;29;20500;-76
2023/12/06 08:59:02;;;;;;;14.65;9.63;;;;;;;3.33;55.22;100963.72;4936169;29;20496;-76
2023/12/06 09:01:30;;;;;;;14.60;10.68;;;;;;;3.33;55.25;100966.44;4914563;29;20457;-77
2023/12/06 09:04:00;;;;;;;18.30;12.35;;;;;;;3.35;55.30;100968.09;4945697;29;20047;-77
2023/12/06 09:06:28;;;;;;;18.17;11.95;;;;;;;3.35;55.33;100964.53;4935823;29;20051;-77
2023/12/06 09:08:57;;;;;;;17.80;11.07;;;;;;;3.36;55.31;100969.84;4933160;29;20051;-77
2023/12/06 09:11:25;;;;;;;17.30;11.35;;;;;;;3.37;55.31;100971.59;4935507;29;20054;-78
2023/12/06 09:13:52;;;;;;;15.23;11.68;;;;;;;3.38;55.38;100969.78;4937868;29;20074;-79
2023/12/06 09:16:20;;;;;;;17.20;11.23;;;;;;;3.40;55.41;100971.41;4916746;29;20130;-77
2023/12/06 09:18:48;;;;;;;18.20;12.38;;;;;;;3.40;55.44;100960.59;4939982;29;20043;-79
2023/12/06 09:21:18;;;;;;;18.42;11.75;;;;;;;3.43;55.61;100970.38;4941458;29;20044;-79
2023/12/06 09:23:47;;;;;;;17.25;12.00;;;;;;;3.43;55.51;100974.91;4948377;29;20280;-78
2023/12/06 09:26:15;;;;;;;16.60;11.35;;;;;;;3.44;55.56;100982.06;4919422;29;20568;-79
2023/12/06 09:28:43;;;;;;;17.08;11.23;;;;;;;3.46;55.44;100980.16;4946731;29;20040;-79
2023/12/06 09:31:11;;;;;;;19.38;11.30;;;;;;;3.47;55.34;100990.03;4920107;29;20508;-78
2023/12/06 09:33:39;;;;;;;17.33;11.02;;;;;;;3.47;55.33;100990.91;4953571;29;20139;-77
2023/12/06 09:36:08;;;;;;;17.58;11.18;;;;;;;3.49;55.47;100993.50;4920920;29;20040;-77
2023/12/06 09:38:37;;;;;;;16.98;11.45;;;;;;;3.50;55.54;100995.25;4923414;29;20052;-78
2023/12/06 09:41:07;;;;;;;15.93;11.25;;;;;;;3.50;55.57;101001.53;4941773;29;20035;-78
2023/12/06 09:43:36;;;;;;;16.52;11.20;;;;;;;3.50;55.84;101001.53;4954923;29;20051;-78
2023/12/06 09:46:04;;;;;;;16.38;10.90;;;;;;;3.51;55.60;101005.13;4925342;29;20043;-78
2023/12/06 09:48:32;;;;;;;16.95;11.02;;;;;;;3.52;55.69;101005.03;4921098;29;20047;-79
2023/12/06 09:51:01;;;;;;;16.88;11.32;;;;;;;3.53;55.61;101008.63;4920962;29;20468;-79
2023/12/06 09:53:29;;;;;;;15.35;11.07;;;;;;;3.54;55.49;101002.25;4951592;29;20058;-78
2023/12/06 09:55:59;;;;;;;15.10;10.95;;;;;;;3.56;55.80;101016.56;4923181;29;20044;-77
2023/12/06 09:58:27;;;;;;;16.25;10.63;;;;;;;3.56;55.74;101013.88;4925678;29;20066;-79
2023/12/06 10:00:55;;;;;;;16.35;11.73;;;;;;;3.56;56.04;101014.75;4943002;29;20039;-78
2023/12/06 10:03:24;;;;;;;14.07;10.35;;;;;;;3.58;55.68;101015.50;4948689;29;20090;-78
2023/12/06 10:05:55;;;;;;;17.17;11.45;;;;;;;3.60;55.74;101019.00;4941178;29;20040;-78
2023/12/06 10:08:24;;;;;;;17.45;11.77;;;;;;;3.60;55.70;101015.44;4926454;29;20043;-78
2023/12/06 10:11:01;;;;;;;15.02;10.18;;;;;;;3.66;55.78;101023.19;4944156;29;20390;-78
2023/12/06 10:13:35;;;;;;;17.40;11.27;;;;;;;3.63;56.01;101024.28;4951535;29;20054;-78
2023/12/06 10:16:13;;;;;;;15.32;11.20;;;;;;;3.62;55.91;101027.94;4940288;29;20067;-77
2023/12/06 10:18:41;;;;;;;16.42;10.65;;;;;;;3.65;55.75;101040.41;4945331;28;20051;-78
2023/12/06 10:21:10;;;;;;;15.57;10.55;;;;;;;3.66;55.76;101036.72;4923623;29;20058;-78
2023/12/06 10:23:38;;;;;;;15.27;10.73;;;;;;;3.66;55.85;101036.72;4947149;29;20066;-79
2023/12/06 10:26:08;;;;;;;15.32;9.93;;;;;;;3.68;55.83;101035.69;4942277;29;20036;-78
2023/12/06 10:28:36;;;;;;;16.90;10.43;;;;;;;3.68;55.89;101038.41;4949830;28;20119;-78
2023/12/06 10:31:06;;;;;;;15.48;10.30;;;;;;;3.70;55.79;101038.31;4934564;29;20072;-78
2023/12/06 10:33:34;;;;;;;14.68;9.75;;;;;;;3.69;55.83;101028.44;4933864;29;20048;-78
2023/12/06 10:36:04;;;;;;;16.08;10.18;;;;;;;3.72;55.70;101028.28;4946431;29;20329;-78
2023/12/06 10:38:32;;;;;;;16.00;9.93;;;;;;;3.72;55.62;101023.75;4937137;29;20055;-78
2023/12/06 10:41:02;;;;;;;14.45;9.73;;;;;;;3.73;55.99;101030.88;4922503;29;20074;-78
2023/12/06 10:43:33;;;;;;;16.08;10.35;;;;;;;3.75;55.90;101034.38;4945835;29;20459;-78
2023/12/06 10:46:01;;;;;;;15.38;10.05;;;;;;;3.75;55.85;101026.25;4945605;29;20505;-78
2023/12/06 10:48:32;;;;;;;14.23;9.98;;;;;;;3.79;55.81;101029.69;4945891;29;20056;-78
2023/12/06 10:51:01;;;;;;;16.15;10.25;;;;;;;3.79;55.82;101032.38;4951523;29;20074;-79
2023/12/06 10:53:30;;;;;;;14.50;9.85;;;;;;;3.80;56.15;101030.56;4937682;29;20036;-79
2023/12/06 10:56:01;;;;;;;13.88;9.63;;;;;;;3.82;56.01;101031.31;4922636;29;20079;-78
2023/12/06 10:58:31;;;;;;;15.32;10.13;;;;;;;3.82;55.93;101028.63;4953222;28;20061;-78
2023/12/06 11:01:00;;;;;;;15.55;9.52;;;;;;;3.83;55.86;101035.78;4929587;29;20100;-79
2023/12/06 11:03:28;;;;;;;13.52;9.95;;;;;;;3.84;55.69;101034.81;4937460;29;20044;-79
2023/12/06 11:06:04;;;;;;;14.45;9.73;;;;;;;3.86;55.81;101035.63;4942256;29;20486;-78
2023/12/06 11:08:48;;;;;;;15.35;9.68;;;;;;;3.88;56.07;101039.13;4947594;28;20043;-78
2023/12/06 11:11:34;;;;;;;16.27;9.20;;;;;;;3.89;55.99;101049.88;4926028;29;20047;-78
2023/12/06 11:14:18;;;;;;;15.63;9.52;;;;;;;3.89;56.03;101046.28;4921023;29;20115;-78
2023/12/06 11:16:58;;;;;;;17.55;9.70;;;;;;;3.89;55.93;101044.44;4942145;29;20070;-78
2023/12/06 11:19:26;;;;;;;15.65;10.30;;;;;;;3.90;56.01;101037.16;4922834;29;20563;-78
2023/12/06 11:21:54;;;;;;;16.77;10.85;;;;;;;3.91;56.05;101036.22;4927987;29;20127;-78
2023/12/06 11:24:22;;;;;;;15.65;10.23;;;;;;;3.92;55.78;101032.56;4928913;29;20048;-77
2023/12/06 11:26:51;;;;;;;15.88;10.27;;;;;;;3.94;55.77;101041.47;4929419;29;20044;-79
2023/12/06 11:29:21;;;;;;;14.77;10.23;;;;;;;3.96;55.85;101044.97;4924083;29;20078;-78